Hurley, South Dakota
Current Conditions -  °F | °C
As of 8:36 AM on Friday 24 Oct 2014 (Local Time) from KFSD Reporting Station
Haze Haze  
Wind Chill: 49°   Ceiling: 20000
Heat Index: 49°   Visibility: 3mi
Dew Point: 47°   Wind: 3mph
Humidity: 93%   Direction: 270°W
Pressure: 29.87"   Gusts: NA
Location:  43.28°N, 97.09°W
Report Text: KFSD 241336Z 27003KT 3SM BR BKN200 09/08 A2987 RMK AO2 T00940083
Loading
Personal Weather Stations






























Interactive Weather Map
Tropical Storm Tracking
New forecast layout! Learn more

10-Day Weather Forecast

Advertisements
Track Severe Weather on mobile